Terminal Aerodrome Forecast
Issued by NWS Austin/San Antonio, TX

Home | Current Version | Previous Version | Text Only | Print | Product List | Glossary On
Versions: 1 2 3 4 5 6 7 8 9 10 11 12 13 14 15 16 17 18 19 20 21 22 23 24 25
000
FTUS44 KEWX 180841 AAA
TAFSAT
TAF AMD
KSAT 180841Z 1809/1912 19008KT P6SM BKN009
     FM181100 20009KT 2SM BR OVC007
     FM181200 21006KT 1SM BR OVC003
     FM181400 25007KT 4SM BR OVC007
     FM181600 30008KT P6SM BKN012
     FM181700 34016G26KT P6SM SCT250
     FM182000 36020G30KT P6SM SCT250
     FM190300 36009KT P6SM SKC=

USA.gov is the U.S. government's official web portal to all federal, state and local government web resources and services.